sensor_id;sensor_type;location;lat;lon;timestamp;P1;durP1;ratioP1;P2;durP2;ratioP2
70588;SDS011;58152;49.202;18.744;2024-01-10T00:01:27;90.00;;;42.60;;
70588;SDS011;58152;49.202;18.744;2024-01-10T00:03:53;87.97;;;43.37;;
70588;SDS011;58152;49.202;18.744;2024-01-10T00:06:19;92.33;;;45.73;;
70588;SDS011;58152;49.202;18.744;2024-01-10T00:08:44;88.67;;;41.37;;
70588;SDS011;58152;49.202;18.744;2024-01-10T00:11:10;83.40;;;41.50;;
70588;SDS011;58152;49.202;18.744;2024-01-10T00:13:35;84.83;;;41.23;;
70588;SDS011;58152;49.202;18.744;2024-01-10T00:16:01;94.40;;;43.20;;
70588;SDS011;58152;49.202;18.744;2024-01-10T00:18:26;92.70;;;43.50;;
70588;SDS011;58152;49.202;18.744;2024-01-10T00:20:52;93.33;;;45.10;;
70588;SDS011;58152;49.202;18.744;2024-01-10T00:23:20;98.03;;;46.43;;
70588;SDS011;58152;49.202;18.744;2024-01-10T00:25:46;91.53;;;43.97;;
70588;SDS011;58152;49.202;18.744;2024-01-10T00:28:12;94.77;;;44.73;;
70588;SDS011;58152;49.202;18.744;2024-01-10T00:30:38;103.73;;;46.90;;
70588;SDS011;58152;49.202;18.744;2024-01-10T00:33:04;94.73;;;46.97;;
70588;SDS011;58152;49.202;18.744;2024-01-10T00:35:30;101.50;;;47.73;;
70588;SDS011;58152;49.202;18.744;2024-01-10T00:37:56;98.80;;;46.53;;
70588;SDS011;58152;49.202;18.744;2024-01-10T00:40:22;93.63;;;45.17;;
70588;SDS011;58152;49.202;18.744;2024-01-10T00:42:47;103.47;;;47.77;;
70588;SDS011;58152;49.202;18.744;2024-01-10T00:45:13;107.07;;;52.97;;
70588;SDS011;58152;49.202;18.744;2024-01-10T00:47:38;100.80;;;48.43;;
70588;SDS011;58152;49.202;18.744;2024-01-10T00:50:04;107.23;;;50.03;;
70588;SDS011;58152;49.202;18.744;2024-01-10T00:52:30;107.90;;;50.13;;
70588;SDS011;58152;49.202;18.744;2024-01-10T00:54:56;104.17;;;46.93;;
70588;SDS011;58152;49.202;18.744;2024-01-10T00:57:21;99.07;;;46.70;;
70588;SDS011;58152;49.202;18.744;2024-01-10T00:59:46;91.37;;;46.80;;
70588;SDS011;58152;49.202;18.744;2024-01-10T01:02:12;97.80;;;46.27;;
70588;SDS011;58152;49.202;18.744;2024-01-10T01:04:37;102.10;;;45.60;;
70588;SDS011;58152;49.202;18.744;2024-01-10T01:07:03;99.43;;;48.33;;
70588;SDS011;58152;49.202;18.744;2024-01-10T01:09:28;95.90;;;45.67;;
70588;SDS011;58152;49.202;18.744;2024-01-10T01:11:53;96.60;;;45.03;;
70588;SDS011;58152;49.202;18.744;2024-01-10T01:14:19;101.17;;;49.03;;
70588;SDS011;58152;49.202;18.744;2024-01-10T01:16:44;94.50;;;47.90;;
70588;SDS011;58152;49.202;18.744;2024-01-10T01:19:10;107.83;;;49.00;;
70588;SDS011;58152;49.202;18.744;2024-01-10T01:21:35;98.57;;;45.57;;
70588;SDS011;58152;49.202;18.744;2024-01-10T01:24:01;95.27;;;46.00;;
70588;SDS011;58152;49.202;18.744;2024-01-10T01:26:26;104.33;;;45.53;;
70588;SDS011;58152;49.202;18.744;2024-01-10T01:28:51;99.07;;;47.40;;
70588;SDS011;58152;49.202;18.744;2024-01-10T01:31:17;98.37;;;43.87;;
70588;SDS011;58152;49.202;18.744;2024-01-10T01:33:42;94.93;;;43.77;;
70588;SDS011;58152;49.202;18.744;2024-01-10T01:36:08;87.63;;;43.33;;
70588;SDS011;58152;49.202;18.744;2024-01-10T01:38:33;92.03;;;42.77;;
70588;SDS011;58152;49.202;18.744;2024-01-10T01:40:59;90.93;;;43.47;;
70588;SDS011;58152;49.202;18.744;2024-01-10T01:43:25;100.53;;;43.60;;
70588;SDS011;58152;49.202;18.744;2024-01-10T01:45:51;90.37;;;42.97;;
70588;SDS011;58152;49.202;18.744;2024-01-10T01:48:19;102.03;;;48.33;;
70588;SDS011;58152;49.202;18.744;2024-01-10T01:50:45;97.83;;;44.87;;
70588;SDS011;58152;49.202;18.744;2024-01-10T01:53:15;103.77;;;49.13;;
70588;SDS011;58152;49.202;18.744;2024-01-10T01:55:42;106.13;;;48.90;;
70588;SDS011;58152;49.202;18.744;2024-01-10T01:58:09;110.53;;;50.07;;
70588;SDS011;58152;49.202;18.744;2024-01-10T02:00:35;100.87;;;43.63;;
70588;SDS011;58152;49.202;18.744;2024-01-10T02:03:02;107.77;;;47.30;;
70588;SDS011;58152;49.202;18.744;2024-01-10T02:05:27;97.47;;;44.67;;
70588;SDS011;58152;49.202;18.744;2024-01-10T02:07:53;92.87;;;41.70;;
70588;SDS011;58152;49.202;18.744;2024-01-10T02:10:20;93.43;;;43.37;;
70588;SDS011;58152;49.202;18.744;2024-01-10T02:12:46;90.37;;;42.33;;
70588;SDS011;58152;49.202;18.744;2024-01-10T02:15:13;93.40;;;43.43;;
70588;SDS011;58152;49.202;18.744;2024-01-10T02:17:39;92.70;;;43.67;;
70588;SDS011;58152;49.202;18.744;2024-01-10T02:20:08;88.17;;;41.83;;
70588;SDS011;58152;49.202;18.744;2024-01-10T02:22:35;92.40;;;44.63;;
70588;SDS011;58152;49.202;18.744;2024-01-10T02:25:00;87.40;;;39.57;;
70588;SDS011;58152;49.202;18.744;2024-01-10T02:27:25;82.90;;;39.33;;
70588;SDS011;58152;49.202;18.744;2024-01-10T02:29:52;83.43;;;39.07;;
70588;SDS011;58152;49.202;18.744;2024-01-10T02:32:19;83.07;;;39.30;;
70588;SDS011;58152;49.202;18.744;2024-01-10T02:34:44;84.83;;;40.87;;
70588;SDS011;58152;49.202;18.744;2024-01-10T02:37:10;96.33;;;42.93;;
70588;SDS011;58152;49.202;18.744;2024-01-10T02:39:35;87.73;;;41.77;;
70588;SDS011;58152;49.202;18.744;2024-01-10T02:42:00;85.63;;;39.90;;
70588;SDS011;58152;49.202;18.744;2024-01-10T02:44:26;82.97;;;40.67;;
70588;SDS011;58152;49.202;18.744;2024-01-10T02:46:53;102.13;;;45.20;;
70588;SDS011;58152;49.202;18.744;2024-01-10T02:49:18;92.70;;;42.97;;
70588;SDS011;58152;49.202;18.744;2024-01-10T02:51:44;87.43;;;40.43;;
70588;SDS011;58152;49.202;18.744;2024-01-10T02:54:09;95.37;;;42.27;;
70588;SDS011;58152;49.202;18.744;2024-01-10T02:56:35;91.10;;;43.20;;
70588;SDS011;58152;49.202;18.744;2024-01-10T02:59:00;96.23;;;42.23;;
70588;SDS011;58152;49.202;18.744;2024-01-10T03:01:25;90.33;;;40.87;;
70588;SDS011;58152;49.202;18.744;2024-01-10T03:03:51;85.53;;;38.37;;
70588;SDS011;58152;49.202;18.744;2024-01-10T03:06:16;85.87;;;39.60;;
70588;SDS011;58152;49.202;18.744;2024-01-10T03:08:42;86.07;;;39.80;;
70588;SDS011;58152;49.202;18.744;2024-01-10T03:11:07;92.13;;;42.93;;
70588;SDS011;58152;49.202;18.744;2024-01-10T03:13:32;99.93;;;47.37;;
70588;SDS011;58152;49.202;18.744;2024-01-10T03:15:58;101.67;;;43.70;;
70588;SDS011;58152;49.202;18.744;2024-01-10T03:18:24;92.90;;;46.47;;
70588;SDS011;58152;49.202;18.744;2024-01-10T03:20:49;96.23;;;44.80;;
70588;SDS011;58152;49.202;18.744;2024-01-10T03:23:15;100.23;;;46.23;;
70588;SDS011;58152;49.202;18.744;2024-01-10T03:25:41;94.43;;;43.60;;
70588;SDS011;58152;49.202;18.744;2024-01-10T03:28:07;103.70;;;46.47;;
70588;SDS011;58152;49.202;18.744;2024-01-10T03:30:32;104.43;;;45.97;;
70588;SDS011;58152;49.202;18.744;2024-01-10T03:32:57;103.67;;;47.63;;
70588;SDS011;58152;49.202;18.744;2024-01-10T03:35:23;102.93;;;46.77;;
70588;SDS011;58152;49.202;18.744;2024-01-10T03:37:48;96.17;;;45.60;;
70588;SDS011;58152;49.202;18.744;2024-01-10T03:40:14;100.43;;;44.77;;
70588;SDS011;58152;49.202;18.744;2024-01-10T03:42:39;102.77;;;47.73;;
70588;SDS011;58152;49.202;18.744;2024-01-10T03:45:05;99.53;;;46.30;;
70588;SDS011;58152;49.202;18.744;2024-01-10T03:47:30;100.43;;;47.93;;
70588;SDS011;58152;49.202;18.744;2024-01-10T03:49:56;105.97;;;47.80;;
70588;SDS011;58152;49.202;18.744;2024-01-10T03:52:22;99.57;;;46.30;;
70588;SDS011;58152;49.202;18.744;2024-01-10T03:54:47;97.27;;;43.87;;
70588;SDS011;58152;49.202;18.744;2024-01-10T03:57:13;103.77;;;48.67;;
70588;SDS011;58152;49.202;18.744;2024-01-10T03:59:38;103.73;;;47.97;;
70588;SDS011;58152;49.202;18.744;2024-01-10T04:02:04;97.07;;;43.57;;
70588;SDS011;58152;49.202;18.744;2024-01-10T04:04:30;106.77;;;49.73;;
70588;SDS011;58152;49.202;18.744;2024-01-10T04:06:55;96.57;;;46.13;;
70588;SDS011;58152;49.202;18.744;2024-01-10T04:09:21;99.43;;;47.93;;
70588;SDS011;58152;49.202;18.744;2024-01-10T04:11:46;100.63;;;43.57;;
70588;SDS011;58152;49.202;18.744;2024-01-10T04:14:12;99.87;;;45.17;;
70588;SDS011;58152;49.202;18.744;2024-01-10T04:16:37;98.33;;;47.17;;
70588;SDS011;58152;49.202;18.744;2024-01-10T04:19:03;97.20;;;44.47;;
70588;SDS011;58152;49.202;18.744;2024-01-10T04:21:28;108.23;;;46.87;;
70588;SDS011;58152;49.202;18.744;2024-01-10T04:23:53;95.60;;;44.67;;
70588;SDS011;58152;49.202;18.744;2024-01-10T04:26:19;103.73;;;45.73;;
70588;SDS011;58152;49.202;18.744;2024-01-10T04:28:44;106.90;;;47.80;;
70588;SDS011;58152;49.202;18.744;2024-01-10T04:31:09;102.93;;;50.27;;
70588;SDS011;58152;49.202;18.744;2024-01-10T04:33:35;129.03;;;59.23;;
70588;SDS011;58152;49.202;18.744;2024-01-10T04:36:01;104.70;;;48.03;;
70588;SDS011;58152;49.202;18.744;2024-01-10T04:38:26;108.33;;;47.93;;
70588;SDS011;58152;49.202;18.744;2024-01-10T04:40:52;93.97;;;43.93;;
70588;SDS011;58152;49.202;18.744;2024-01-10T04:43:18;98.50;;;45.00;;
70588;SDS011;58152;49.202;18.744;2024-01-10T04:45:43;96.27;;;43.80;;
70588;SDS011;58152;49.202;18.744;2024-01-10T04:48:09;105.73;;;45.97;;
70588;SDS011;58152;49.202;18.744;2024-01-10T04:50:34;99.27;;;46.93;;
70588;SDS011;58152;49.202;18.744;2024-01-10T04:53:00;95.77;;;46.40;;
70588;SDS011;58152;49.202;18.744;2024-01-10T04:55:25;101.53;;;45.37;;
70588;SDS011;58152;49.202;18.744;2024-01-10T04:57:51;100.40;;;45.67;;
70588;SDS011;58152;49.202;18.744;2024-01-10T05:00:16;100.80;;;43.50;;
70588;SDS011;58152;49.202;18.744;2024-01-10T05:02:42;93.43;;;40.70;;
70588;SDS011;58152;49.202;18.744;2024-01-10T05:05:07;90.67;;;43.83;;
70588;SDS011;58152;49.202;18.744;2024-01-10T05:07:33;92.53;;;40.07;;
70588;SDS011;58152;49.202;18.744;2024-01-10T05:09:58;82.83;;;37.87;;
70588;SDS011;58152;49.202;18.744;2024-01-10T05:12:24;86.97;;;38.77;;
70588;SDS011;58152;49.202;18.744;2024-01-10T05:14:50;81.43;;;35.27;;
70588;SDS011;58152;49.202;18.744;2024-01-10T05:17:15;87.37;;;37.67;;
70588;SDS011;58152;49.202;18.744;2024-01-10T05:19:40;72.73;;;36.43;;
70588;SDS011;58152;49.202;18.744;2024-01-10T05:22:06;81.40;;;37.60;;
70588;SDS011;58152;49.202;18.744;2024-01-10T05:24:32;81.43;;;35.83;;
70588;SDS011;58152;49.202;18.744;2024-01-10T05:26:57;77.90;;;35.53;;
70588;SDS011;58152;49.202;18.744;2024-01-10T05:29:22;77.83;;;35.43;;
70588;SDS011;58152;49.202;18.744;2024-01-10T05:31:49;72.03;;;34.07;;
70588;SDS011;58152;49.202;18.744;2024-01-10T05:34:15;84.50;;;37.10;;
70588;SDS011;58152;49.202;18.744;2024-01-10T05:36:41;75.43;;;34.17;;
70588;SDS011;58152;49.202;18.744;2024-01-10T05:39:07;65.00;;;30.87;;
70588;SDS011;58152;49.202;18.744;2024-01-10T05:41:32;74.17;;;34.90;;
70588;SDS011;58152;49.202;18.744;2024-01-10T05:43:58;76.80;;;34.57;;
70588;SDS011;58152;49.202;18.744;2024-01-10T05:46:23;79.33;;;36.23;;
70588;SDS011;58152;49.202;18.744;2024-01-10T05:48:48;84.03;;;39.87;;
70588;SDS011;58152;49.202;18.744;2024-01-10T05:51:14;88.10;;;40.57;;
70588;SDS011;58152;49.202;18.744;2024-01-10T05:53:39;90.53;;;44.17;;
70588;SDS011;58152;49.202;18.744;2024-01-10T05:56:05;99.77;;;44.10;;
70588;SDS011;58152;49.202;18.744;2024-01-10T05:58:31;107.37;;;47.77;;
70588;SDS011;58152;49.202;18.744;2024-01-10T06:00:56;102.17;;;46.20;;
70588;SDS011;58152;49.202;18.744;2024-01-10T06:03:22;95.13;;;42.37;;
70588;SDS011;58152;49.202;18.744;2024-01-10T06:05:47;87.67;;;40.47;;
70588;SDS011;58152;49.202;18.744;2024-01-10T06:08:12;81.17;;;37.57;;
70588;SDS011;58152;49.202;18.744;2024-01-10T06:10:41;79.03;;;36.80;;
70588;SDS011;58152;49.202;18.744;2024-01-10T06:13:10;83.00;;;40.10;;
70588;SDS011;58152;49.202;18.744;2024-01-10T06:15:35;81.73;;;39.43;;
70588;SDS011;58152;49.202;18.744;2024-01-10T06:18:01;85.83;;;37.50;;
70588;SDS011;58152;49.202;18.744;2024-01-10T06:20:26;91.70;;;44.33;;
70588;SDS011;58152;49.202;18.744;2024-01-10T06:22:52;104.73;;;46.20;;
70588;SDS011;58152;49.202;18.744;2024-01-10T06:25:19;91.67;;;41.67;;
70588;SDS011;58152;49.202;18.744;2024-01-10T06:27:44;91.10;;;43.97;;
70588;SDS011;58152;49.202;18.744;2024-01-10T06:30:10;107.43;;;47.97;;
70588;SDS011;58152;49.202;18.744;2024-01-10T06:32:42;108.03;;;49.07;;
70588;SDS011;58152;49.202;18.744;2024-01-10T06:35:08;105.43;;;46.33;;
70588;SDS011;58152;49.202;18.744;2024-01-10T06:37:34;104.40;;;46.77;;
70588;SDS011;58152;49.202;18.744;2024-01-10T06:40:00;111.07;;;47.00;;
70588;SDS011;58152;49.202;18.744;2024-01-10T06:42:25;106.27;;;48.37;;
70588;SDS011;58152;49.202;18.744;2024-01-10T06:44:51;102.60;;;44.40;;
70588;SDS011;58152;49.202;18.744;2024-01-10T06:47:16;99.37;;;46.43;;
70588;SDS011;58152;49.202;18.744;2024-01-10T06:49:42;97.67;;;43.53;;
70588;SDS011;58152;49.202;18.744;2024-01-10T06:52:07;96.43;;;44.20;;
70588;SDS011;58152;49.202;18.744;2024-01-10T06:54:33;96.20;;;41.43;;
70588;SDS011;58152;49.202;18.744;2024-01-10T06:56:59;103.23;;;44.43;;
70588;SDS011;58152;49.202;18.744;2024-01-10T06:59:24;107.23;;;46.53;;
70588;SDS011;58152;49.202;18.744;2024-01-10T07:01:53;99.73;;;44.90;;
70588;SDS011;58152;49.202;18.744;2024-01-10T07:04:21;94.83;;;43.90;;
70588;SDS011;58152;49.202;18.744;2024-01-10T07:06:49;92.27;;;43.50;;
70588;SDS011;58152;49.202;18.744;2024-01-10T07:09:15;91.30;;;40.60;;
70588;SDS011;58152;49.202;18.744;2024-01-10T07:11:47;97.03;;;44.47;;
70588;SDS011;58152;49.202;18.744;2024-01-10T07:14:16;108.13;;;47.70;;
70588;SDS011;58152;49.202;18.744;2024-01-10T07:16:42;95.57;;;43.17;;
70588;SDS011;58152;49.202;18.744;2024-01-10T07:19:10;90.07;;;41.80;;
70588;SDS011;58152;49.202;18.744;2024-01-10T07:21:39;97.23;;;43.97;;
70588;SDS011;58152;49.202;18.744;2024-01-10T07:24:08;91.20;;;42.33;;
70588;SDS011;58152;49.202;18.744;2024-01-10T07:26:35;95.50;;;43.97;;
70588;SDS011;58152;49.202;18.744;2024-01-10T07:29:01;91.73;;;42.27;;
70588;SDS011;58152;49.202;18.744;2024-01-10T07:31:28;83.73;;;37.50;;
70588;SDS011;58152;49.202;18.744;2024-01-10T07:33:55;93.37;;;42.27;;
70588;SDS011;58152;49.202;18.744;2024-01-10T07:36:26;86.30;;;41.60;;
70588;SDS011;58152;49.202;18.744;2024-01-10T07:38:52;84.10;;;40.47;;
70588;SDS011;58152;49.202;18.744;2024-01-10T07:41:18;83.33;;;38.17;;
70588;SDS011;58152;49.202;18.744;2024-01-10T07:43:43;87.47;;;39.47;;
70588;SDS011;58152;49.202;18.744;2024-01-10T07:46:09;83.50;;;37.63;;
70588;SDS011;58152;49.202;18.744;2024-01-10T07:48:34;78.20;;;35.87;;
70588;SDS011;58152;49.202;18.744;2024-01-10T07:51:01;80.13;;;34.90;;
70588;SDS011;58152;49.202;18.744;2024-01-10T07:53:27;82.20;;;38.83;;
70588;SDS011;58152;49.202;18.744;2024-01-10T07:55:52;84.40;;;38.43;;
70588;SDS011;58152;49.202;18.744;2024-01-10T07:58:17;85.27;;;37.67;;
70588;SDS011;58152;49.202;18.744;2024-01-10T08:00:43;81.20;;;36.87;;
70588;SDS011;58152;49.202;18.744;2024-01-10T08:03:10;89.30;;;40.87;;
70588;SDS011;58152;49.202;18.744;2024-01-10T08:05:35;78.97;;;37.47;;
70588;SDS011;58152;49.202;18.744;2024-01-10T08:08:01;82.40;;;37.43;;
70588;SDS011;58152;49.202;18.744;2024-01-10T08:10:26;77.13;;;36.37;;
70588;SDS011;58152;49.202;18.744;2024-01-10T08:12:52;73.67;;;35.50;;
70588;SDS011;58152;49.202;18.744;2024-01-10T08:15:18;74.57;;;35.50;;
70588;SDS011;58152;49.202;18.744;2024-01-10T08:17:44;77.60;;;36.40;;
70588;SDS011;58152;49.202;18.744;2024-01-10T08:20:10;84.80;;;39.30;;
70588;SDS011;58152;49.202;18.744;2024-01-10T08:22:36;84.70;;;39.00;;
70588;SDS011;58152;49.202;18.744;2024-01-10T08:25:02;72.40;;;34.40;;
70588;SDS011;58152;49.202;18.744;2024-01-10T08:27:28;82.17;;;37.00;;
70588;SDS011;58152;49.202;18.744;2024-01-10T08:29:53;79.33;;;37.57;;
70588;SDS011;58152;49.202;18.744;2024-01-10T08:32:19;76.70;;;37.10;;
70588;SDS011;58152;49.202;18.744;2024-01-10T08:34:47;80.30;;;39.97;;
70588;SDS011;58152;49.202;18.744;2024-01-10T08:37:13;81.07;;;41.30;;
70588;SDS011;58152;49.202;18.744;2024-01-10T08:39:39;85.43;;;39.83;;
70588;SDS011;58152;49.202;18.744;2024-01-10T08:42:08;84.70;;;40.97;;
70588;SDS011;58152;49.202;18.744;2024-01-10T08:44:34;88.87;;;44.77;;
70588;SDS011;58152;49.202;18.744;2024-01-10T08:47:00;74.93;;;34.70;;
70588;SDS011;58152;49.202;18.744;2024-01-10T08:49:25;69.07;;;33.73;;
70588;SDS011;58152;49.202;18.744;2024-01-10T08:51:51;71.53;;;35.27;;
70588;SDS011;58152;49.202;18.744;2024-01-10T08:54:18;75.07;;;35.97;;
70588;SDS011;58152;49.202;18.744;2024-01-10T08:56:47;71.23;;;34.00;;
70588;SDS011;58152;49.202;18.744;2024-01-10T08:59:13;76.37;;;36.47;;
70588;SDS011;58152;49.202;18.744;2024-01-10T09:01:39;68.27;;;32.93;;
70588;SDS011;58152;49.202;18.744;2024-01-10T09:04:05;74.00;;;34.03;;
70588;SDS011;58152;49.202;18.744;2024-01-10T09:06:31;60.70;;;30.10;;
70588;SDS011;58152;49.202;18.744;2024-01-10T09:08:57;62.17;;;30.73;;
70588;SDS011;58152;49.202;18.744;2024-01-10T09:11:23;69.83;;;32.40;;
70588;SDS011;58152;49.202;18.744;2024-01-10T09:13:49;78.17;;;37.37;;
70588;SDS011;58152;49.202;18.744;2024-01-10T09:16:22;68.67;;;33.67;;
70588;SDS011;58152;49.202;18.744;2024-01-10T09:18:48;62.20;;;32.07;;
70588;SDS011;58152;49.202;18.744;2024-01-10T09:21:14;69.23;;;32.83;;
70588;SDS011;58152;49.202;18.744;2024-01-10T09:23:40;60.97;;;31.10;;
70588;SDS011;58152;49.202;18.744;2024-01-10T09:26:06;68.87;;;33.90;;
70588;SDS011;58152;49.202;18.744;2024-01-10T09:28:33;69.20;;;33.83;;
70588;SDS011;58152;49.202;18.744;2024-01-10T09:30:59;65.20;;;32.67;;
70588;SDS011;58152;49.202;18.744;2024-01-10T09:33:24;75.57;;;36.30;;
70588;SDS011;58152;49.202;18.744;2024-01-10T09:35:50;74.27;;;36.43;;
70588;SDS011;58152;49.202;18.744;2024-01-10T09:38:15;71.97;;;35.10;;
70588;SDS011;58152;49.202;18.744;2024-01-10T09:40:42;63.23;;;33.57;;
70588;SDS011;58152;49.202;18.744;2024-01-10T09:43:07;64.93;;;33.97;;
70588;SDS011;58152;49.202;18.744;2024-01-10T09:45:36;71.20;;;33.43;;
70588;SDS011;58152;49.202;18.744;2024-01-10T09:48:11;59.40;;;29.90;;
70588;SDS011;58152;49.202;18.744;2024-01-10T09:50:39;68.53;;;32.40;;
70588;SDS011;58152;49.202;18.744;2024-01-10T09:55:34;73.97;;;35.00;;
70588;SDS011;58152;49.202;18.744;2024-01-10T09:58:02;66.13;;;32.50;;
70588;SDS011;58152;49.202;18.744;2024-01-10T10:00:30;65.30;;;33.40;;
70588;SDS011;58152;49.202;18.744;2024-01-10T10:02:56;63.77;;;33.83;;
70588;SDS011;58152;49.202;18.744;2024-01-10T10:05:23;60.57;;;32.23;;
70588;SDS011;58152;49.202;18.744;2024-01-10T10:07:49;74.47;;;39.33;;
70588;SDS011;58152;49.202;18.744;2024-01-10T10:10:17;63.83;;;34.67;;
70588;SDS011;58152;49.202;18.744;2024-01-10T10:12:47;61.80;;;32.90;;
70588;SDS011;58152;49.202;18.744;2024-01-10T10:15:14;64.23;;;32.30;;
70588;SDS011;58152;49.202;18.744;2024-01-10T10:17:41;56.20;;;30.83;;
70588;SDS011;58152;49.202;18.744;2024-01-10T10:20:33;62.27;;;33.27;;
70588;SDS011;58152;49.202;18.744;2024-01-10T10:23:03;61.77;;;33.00;;
70588;SDS011;58152;49.202;18.744;2024-01-10T10:25:31;57.20;;;30.30;;
70588;SDS011;58152;49.202;18.744;2024-01-10T10:28:19;68.23;;;34.20;;
70588;SDS011;58152;49.202;18.744;2024-01-10T10:31:04;54.50;;;29.30;;
70588;SDS011;58152;49.202;18.744;2024-01-10T10:33:35;61.17;;;31.65;;
70588;SDS011;58152;49.202;18.744;2024-01-10T10:36:04;60.03;;;30.47;;
70588;SDS011;58152;49.202;18.744;2024-01-10T10:38:33;58.17;;;30.23;;
70588;SDS011;58152;49.202;18.744;2024-01-10T10:40:59;50.57;;;28.50;;
70588;SDS011;58152;49.202;18.744;2024-01-10T10:43:25;53.80;;;31.63;;
70588;SDS011;58152;49.202;18.744;2024-01-10T10:45:51;58.90;;;31.43;;
70588;SDS011;58152;49.202;18.744;2024-01-10T10:48:19;62.20;;;31.97;;
70588;SDS011;58152;49.202;18.744;2024-01-10T10:50:59;61.57;;;31.80;;
70588;SDS011;58152;49.202;18.744;2024-01-10T10:53:37;53.27;;;29.23;;
70588;SDS011;58152;49.202;18.744;2024-01-10T10:56:07;55.50;;;31.07;;
70588;SDS011;58152;49.202;18.744;2024-01-10T10:58:34;56.70;;;31.53;;
70588;SDS011;58152;49.202;18.744;2024-01-10T11:01:04;56.70;;;31.67;;
70588;SDS011;58152;49.202;18.744;2024-01-10T11:03:31;55.67;;;30.47;;
70588;SDS011;58152;49.202;18.744;2024-01-10T11:06:00;53.33;;;29.43;;
70588;SDS011;58152;49.202;18.744;2024-01-10T11:08:26;55.40;;;30.53;;
70588;SDS011;58152;49.202;18.744;2024-01-10T11:10:54;53.30;;;29.53;;
70588;SDS011;58152;49.202;18.744;2024-01-10T11:25:21;49.83;;;28.07;;
70588;SDS011;58152;49.202;18.744;2024-01-10T11:27:51;45.93;;;26.83;;
70588;SDS011;58152;49.202;18.744;2024-01-10T11:38:43;42.77;;;24.93;;
70588;SDS011;58152;49.202;18.744;2024-01-10T11:41:19;51.97;;;31.30;;
70588;SDS011;58152;49.202;18.744;2024-01-10T11:46:52;48.20;;;29.07;;
70588;SDS011;58152;49.202;18.744;2024-01-10T11:49:22;49.97;;;28.33;;
70588;SDS011;58152;49.202;18.744;2024-01-10T11:51:50;43.03;;;26.23;;
70588;SDS011;58152;49.202;18.744;2024-01-10T11:57:08;49.03;;;25.77;;
70588;SDS011;58152;49.202;18.744;2024-01-10T11:59:39;45.97;;;28.02;;
70588;SDS011;58152;49.202;18.744;2024-01-10T12:02:06;48.78;;;26.38;;
70588;SDS011;58152;49.202;18.744;2024-01-10T12:04:33;43.75;;;25.92;;
70588;SDS011;58152;49.202;18.744;2024-01-10T12:07:00;45.10;;;26.33;;
70588;SDS011;58152;49.202;18.744;2024-01-10T12:09:28;37.50;;;23.15;;
70588;SDS011;58152;49.202;18.744;2024-01-10T12:11:53;42.80;;;25.17;;
70588;SDS011;58152;49.202;18.744;2024-01-10T12:14:18;40.42;;;24.20;;
70588;SDS011;58152;49.202;18.744;2024-01-10T12:16:45;40.22;;;24.10;;
70588;SDS011;58152;49.202;18.744;2024-01-10T12:19:11;36.38;;;22.42;;
70588;SDS011;58152;49.202;18.744;2024-01-10T12:21:37;38.00;;;22.55;;
70588;SDS011;58152;49.202;18.744;2024-01-10T12:24:05;41.63;;;24.10;;
70588;SDS011;58152;49.202;18.744;2024-01-10T12:26:31;41.28;;;23.33;;
70588;SDS011;58152;49.202;18.744;2024-01-10T12:28:58;41.63;;;23.15;;
70588;SDS011;58152;49.202;18.744;2024-01-10T12:31:28;35.85;;;22.45;;
70588;SDS011;58152;49.202;18.744;2024-01-10T12:33:57;36.25;;;22.67;;
70588;SDS011;58152;49.202;18.744;2024-01-10T12:36:24;35.08;;;21.98;;
70588;SDS011;58152;49.202;18.744;2024-01-10T12:38:50;37.17;;;22.65;;
70588;SDS011;58152;49.202;18.744;2024-01-10T12:41:15;41.72;;;25.45;;
70588;SDS011;58152;49.202;18.744;2024-01-10T12:43:42;45.40;;;26.10;;
70588;SDS011;58152;49.202;18.744;2024-01-10T12:46:08;38.05;;;24.70;;
70588;SDS011;58152;49.202;18.744;2024-01-10T12:48:38;42.08;;;25.55;;
70588;SDS011;58152;49.202;18.744;2024-01-10T12:51:08;42.38;;;25.60;;
70588;SDS011;58152;49.202;18.744;2024-01-10T12:53:42;40.00;;;25.27;;
70588;SDS011;58152;49.202;18.744;2024-01-10T12:56:09;40.78;;;25.67;;
70588;SDS011;58152;49.202;18.744;2024-01-10T12:58:39;42.03;;;24.65;;
70588;SDS011;58152;49.202;18.744;2024-01-10T13:01:08;44.15;;;25.42;;
70588;SDS011;58152;49.202;18.744;2024-01-10T13:03:34;39.30;;;24.65;;
70588;SDS011;58152;49.202;18.744;2024-01-10T13:05:59;46.08;;;27.25;;
70588;SDS011;58152;49.202;18.744;2024-01-10T13:08:24;46.92;;;25.60;;
70588;SDS011;58152;49.202;18.744;2024-01-10T13:10:50;43.47;;;26.27;;
70588;SDS011;58152;49.202;18.744;2024-01-10T13:13:15;43.38;;;26.52;;
70588;SDS011;58152;49.202;18.744;2024-01-10T13:15:46;42.95;;;26.00;;
70588;SDS011;58152;49.202;18.744;2024-01-10T13:18:12;42.20;;;24.10;;
70588;SDS011;58152;49.202;18.744;2024-01-10T13:20:40;37.78;;;23.60;;
70588;SDS011;58152;49.202;18.744;2024-01-10T13:23:05;39.20;;;25.08;;
70588;SDS011;58152;49.202;18.744;2024-01-10T13:25:31;38.38;;;24.45;;
70588;SDS011;58152;49.202;18.744;2024-01-10T13:27:57;41.03;;;25.20;;
70588;SDS011;58152;49.202;18.744;2024-01-10T13:30:22;45.15;;;26.33;;
70588;SDS011;58152;49.202;18.744;2024-01-10T13:32:48;40.10;;;25.48;;
70588;SDS011;58152;49.202;18.744;2024-01-10T13:35:14;41.72;;;25.75;;
70588;SDS011;58152;49.202;18.744;2024-01-10T13:37:41;44.45;;;26.95;;
70588;SDS011;58152;49.202;18.744;2024-01-10T13:40:07;43.13;;;25.55;;
70588;SDS011;58152;49.202;18.744;2024-01-10T13:42:37;41.22;;;24.90;;
70588;SDS011;58152;49.202;18.744;2024-01-10T13:45:06;41.53;;;25.52;;
70588;SDS011;58152;49.202;18.744;2024-01-10T13:47:32;42.13;;;24.42;;
70588;SDS011;58152;49.202;18.744;2024-01-10T13:49:59;40.60;;;25.00;;
70588;SDS011;58152;49.202;18.744;2024-01-10T13:52:25;42.63;;;25.88;;
70588;SDS011;58152;49.202;18.744;2024-01-10T13:54:50;42.22;;;24.60;;
70588;SDS011;58152;49.202;18.744;2024-01-10T13:57:16;43.97;;;25.25;;
70588;SDS011;58152;49.202;18.744;2024-01-10T13:59:42;47.00;;;26.70;;
70588;SDS011;58152;49.202;18.744;2024-01-10T14:02:07;40.40;;;25.48;;
70588;SDS011;58152;49.202;18.744;2024-01-10T14:04:33;41.22;;;25.75;;
70588;SDS011;58152;49.202;18.744;2024-01-10T14:06:58;44.75;;;27.23;;
70588;SDS011;58152;49.202;18.744;2024-01-10T14:09:24;42.92;;;25.30;;
70588;SDS011;58152;49.202;18.744;2024-01-10T14:11:49;42.97;;;24.90;;
70588;SDS011;58152;49.202;18.744;2024-01-10T14:14:18;39.33;;;23.40;;
70588;SDS011;58152;49.202;18.744;2024-01-10T14:16:43;39.08;;;23.20;;
70588;SDS011;58152;49.202;18.744;2024-01-10T14:19:09;41.95;;;24.63;;
70588;SDS011;58152;49.202;18.744;2024-01-10T14:21:34;38.22;;;24.48;;
70588;SDS011;58152;49.202;18.744;2024-01-10T14:27:00;37.03;;;22.95;;
70588;SDS011;58152;49.202;18.744;2024-01-10T14:29:26;36.60;;;23.55;;
70588;SDS011;58152;49.202;18.744;2024-01-10T14:31:51;40.33;;;23.40;;
70588;SDS011;58152;49.202;18.744;2024-01-10T14:34:18;38.38;;;22.67;;